Terminal Aerodrome Forecast
Issued by NWS

Home | Current Version | Previous Version | Text Only | Print | Product List | Glossary On
Versions: 1 2 3 4 5 6 7 8 9 10 11 12 13 14 15 16
000
FTUS44 KBMX 231300 AAA
TAFMGM
TAF AMD
KMGM 231301Z 2313/2412 00000KT 1/2SM FG VV002
     FM231400 VRB03KT 3SM BR SKC
     FM231600 35005KT P6SM SKC=

USA.gov is the U.S. government's official web portal to all federal, state and local government web resources and services.